Time;durP1;ratioP1;P1;durP2;ratioP2;P2;SDS_P1;SDS_P2;PMS_P1;PMS_P2;Temp;Humidity;BMP_temperature;BMP_pressure;BME280_temperature;BME280_humidity;BME280_pressure;Samples;Min_cycle;Max_cycle;Signal;HPM_P1;HPM_P2
2023/05/18 00:01:48;;;;;;;2.85;0.63;;;14.00;90.10;;;;;;5037471;28;20037;-76
2023/05/18 00:04:16;;;;;;;1.75;0.47;;;14.00;89.80;;;;;;5047143;28;20040;-77
2023/05/18 00:06:41;;;;;;;0.93;0.30;;;14.10;90.20;;;;;;5035122;28;20124;-76
2023/05/18 00:09:07;;;;;;;2.50;0.40;;;14.00;89.30;;;;;;5047141;28;20444;-76
2023/05/18 00:11:33;;;;;;;1.55;0.60;;;13.90;90.00;;;;;;5043614;28;20059;-76
2023/05/18 00:13:59;;;;;;;2.25;0.40;;;13.80;90.00;;;;;;5041169;28;20033;-76
2023/05/18 00:16:25;;;;;;;1.67;0.68;;;13.90;89.60;;;;;;5041893;28;20035;-77
2023/05/18 00:18:53;;;;;;;1.35;0.57;;;13.90;90.00;;;;;;5041357;28;20029;-76
2023/05/18 00:21:19;;;;;;;0.22;0.20;;;13.90;90.10;;;;;;5044119;28;20025;-76
2023/05/18 00:23:48;;;;;;;0.65;0.40;;;13.80;90.00;;;;;;5048985;28;20120;-76
2023/05/18 00:26:13;;;;;;;1.58;0.55;;;13.90;89.80;;;;;;5039246;28;20033;-77
2023/05/18 00:28:39;;;;;;;0.95;0.40;;;13.80;90.20;;;;;;5040481;28;20038;-76
2023/05/18 00:31:06;;;;;;;2.45;0.47;;;14.00;88.30;;;;;;5037405;28;20044;-77
2023/05/18 00:33:31;;;;;;;1.75;0.68;;;13.80;90.00;;;;;;5036834;28;20052;-77
2023/05/18 00:35:58;;;;;;;1.08;0.47;;;13.70;89.10;;;;;;5040525;28;20033;-76
2023/05/18 00:38:23;;;;;;;1.67;0.70;;;13.90;89.20;;;;;;5040047;28;20033;-76
2023/05/18 00:40:49;;;;;;;0.52;0.28;;;13.90;89.00;;;;;;5035904;28;20048;-77
2023/05/18 00:43:15;;;;;;;1.67;0.70;;;13.80;88.50;;;;;;5038332;28;20099;-76
2023/05/18 00:45:40;;;;;;;3.95;0.60;;;13.80;88.10;;;;;;5045930;28;20048;-76
2023/05/18 00:48:06;;;;;;;2.10;0.90;;;13.60;89.30;;;;;;5044686;28;20025;-77
2023/05/18 01:10:45;;;;;;;1.48;0.73;;;12.60;90.70;;;;;;5040938;28;20498;-76
2023/05/18 01:13:22;;;;;;;2.97;0.80;;;12.80;90.40;;;;;;5034568;28;20032;-76
2023/05/18 01:15:53;;;;;;;1.15;0.40;;;12.70;90.70;;;;;;5037212;28;20101;-76
2023/05/18 01:18:27;;;;;;;1.90;0.60;;;12.50;90.70;;;;;;5039112;28;20411;-76
2023/05/18 01:21:30;;;;;;;1.15;0.40;;;12.40;91.00;;;;;;5035463;28;20029;-76
2023/05/18 01:24:20;;;;;;;1.33;0.70;;;12.80;90.00;;;;;;5035078;28;20056;-76
2023/05/18 01:26:49;;;;;;;1.42;0.40;;;12.90;90.00;;;;;;5043687;28;20036;-76
2023/05/18 01:29:19;;;;;;;4.40;0.68;;;13.10;89.70;;;;;;5041992;28;20148;-77
2023/05/18 01:31:45;;;;;;;1.63;0.73;;;13.00;90.00;;;;;;5037982;28;20099;-77
2023/05/18 01:34:11;;;;;;;0.85;0.50;;;13.10;89.10;;;;;;5044333;28;20029;-76
2023/05/18 01:36:36;;;;;;;1.73;0.77;;;13.00;90.10;;;;;;5041155;28;20059;-76
2023/05/18 01:39:02;;;;;;;1.92;0.35;;;12.90;90.20;;;;;;5032071;28;20041;-77
2023/05/18 01:41:30;;;;;;;1.38;0.50;;;12.80;90.00;;;;;;5043466;28;20028;-76
2023/05/18 01:44:22;;;;;;;1.75;0.73;;;12.90;90.10;;;;;;5035597;28;20475;-76
2023/05/18 01:47:03;;;;;;;0.57;0.35;;;12.90;89.80;;;;;;5042224;28;20036;-76
2023/05/18 01:49:41;;;;;;;0.98;0.40;;;12.90;89.50;;;;;;5044421;28;20127;-76
2023/05/18 01:52:17;;;;;;;1.52;0.57;;;12.70;90.30;;;;;;5034160;28;20063;-76
2023/05/18 01:54:48;;;;;;;2.40;0.50;;;12.70;90.40;;;;;;5045476;28;20430;-76
2023/05/18 01:57:17;;;;;;;2.15;0.60;;;12.50;90.70;;;;;;5045464;28;20287;-76
2023/05/18 01:59:43;;;;;;;1.25;0.50;;;12.20;91.10;;;;;;5035182;28;20508;-76
2023/05/18 02:02:10;;;;;;;0.88;0.50;;;12.40;90.80;;;;;;5041794;28;20029;-76
2023/05/18 02:04:36;;;;;;;2.05;0.75;;;12.30;91.10;;;;;;5045852;28;20025;-76
2023/05/18 02:07:02;;;;;;;0.77;0.40;;;12.10;91.30;;;;;;5043791;28;20365;-76
2023/05/18 02:09:28;;;;;;;1.00;0.43;;;12.20;91.00;;;;;;5035498;28;20025;-76
2023/05/18 02:11:53;;;;;;;1.25;0.52;;;12.30;91.00;;;;;;5037263;28;20037;-76
2023/05/18 02:14:19;;;;;;;1.33;0.50;;;12.30;90.90;;;;;;5035910;28;20026;-76
2023/05/18 02:16:45;;;;;;;1.23;0.40;;;12.40;90.90;;;;;;5047339;28;20087;-76
2023/05/18 02:19:13;;;;;;;1.63;0.40;;;12.30;91.00;;;;;;5037562;28;20076;-76
2023/05/18 02:21:40;;;;;;;0.85;0.43;;;12.20;91.00;;;;;;5036916;28;20033;-76
2023/05/18 02:24:06;;;;;;;1.05;0.60;;;12.20;90.90;;;;;;5038531;28;20116;-76
2023/05/18 02:26:32;;;;;;;1.30;0.52;;;12.30;90.70;;;;;;5033456;28;20022;-77
2023/05/18 02:28:57;;;;;;;2.42;0.70;;;12.40;90.50;;;;;;5044630;28;20769;-76
2023/05/18 02:31:23;;;;;;;1.13;0.50;;;12.30;90.70;;;;;;5037685;28;20037;-76
2023/05/18 02:33:48;;;;;;;0.82;0.45;;;12.20;91.00;;;;;;5036435;28;20426;-76
2023/05/18 02:36:17;;;;;;;1.85;0.75;;;11.90;91.50;;;;;;5037074;28;20033;-76
2023/05/18 02:38:43;;;;;;;5.10;1.58;;;11.80;91.60;;;;;;5036896;28;20040;-77
2023/05/18 02:41:10;;;;;;;0.50;0.28;;;11.90;91.40;;;;;;5035868;28;21356;-76
2023/05/18 02:43:36;;;;;;;1.08;0.50;;;12.00;91.30;;;;;;5052368;28;20387;-77
2023/05/18 02:46:02;;;;;;;2.03;0.60;;;11.80;91.80;;;;;;5042070;28;20055;-77
2023/05/18 02:48:28;;;;;;;1.25;0.55;;;11.70;92.10;;;;;;5040832;28;20048;-76
2023/05/18 02:50:54;;;;;;;1.98;0.60;;;11.50;92.20;;;;;;5043776;28;20095;-76
2023/05/18 02:53:20;;;;;;;1.40;0.50;;;11.60;92.10;;;;;;5039866;28;20137;-76
2023/05/18 02:55:47;;;;;;;1.77;0.60;;;11.70;92.00;;;;;;5042642;28;20526;-76
2023/05/18 02:58:14;;;;;;;1.80;0.50;;;11.60;92.00;;;;;;5042134;28;20025;-76
2023/05/18 03:00:40;;;;;;;1.17;0.40;;;11.80;91.60;;;;;;5044662;28;20126;-75
2023/05/18 03:03:09;;;;;;;0.93;0.50;;;12.00;91.70;;;;;;5037016;28;20033;-75
2023/05/18 03:05:35;;;;;;;2.38;0.65;;;12.10;91.20;;;;;;5028227;28;20033;-75
2023/05/18 03:08:01;;;;;;;2.33;0.73;;;12.40;90.70;;;;;;5036907;28;20025;-75
2023/05/18 03:10:27;;;;;;;2.58;0.80;;;12.10;91.20;;;;;;5030695;28;20533;-76
2023/05/18 03:12:52;;;;;;;1.17;0.52;;;12.10;91.30;;;;;;5030035;28;20503;-75
2023/05/18 03:15:18;;;;;;;3.63;0.80;;;12.30;90.30;;;;;;5041184;28;20048;-75
2023/05/18 03:17:44;;;;;;;2.95;0.73;;;12.30;90.90;;;;;;5037259;28;20095;-75
2023/05/18 03:20:10;;;;;;;1.15;0.65;;;12.20;90.90;;;;;;5033313;28;20033;-76
2023/05/18 03:22:36;;;;;;;1.02;0.55;;;12.20;90.80;;;;;;5030896;28;20037;-75
2023/05/18 03:25:04;;;;;;;1.23;0.50;;;12.40;90.50;;;;;;5043038;28;20060;-75
2023/05/18 03:27:30;;;;;;;0.77;0.45;;;12.40;90.50;;;;;;5039213;28;20041;-75
2023/05/18 03:29:56;;;;;;;1.35;0.57;;;12.30;90.90;;;;;;5034256;28;20478;-75
2023/05/18 03:32:27;;;;;;;1.60;1.00;;;12.20;91.00;;;;;;5043088;28;20395;-75
2023/05/18 03:34:53;;;;;;;1.77;0.60;;;12.10;91.20;;;;;;5034384;28;20116;-75
2023/05/18 03:37:19;;;;;;;1.05;0.55;;;12.00;91.30;;;;;;5038777;28;20040;-75
2023/05/18 03:39:45;;;;;;;1.00;0.50;;;12.00;91.30;;;;;;5034478;28;20052;-75
2023/05/18 03:42:11;;;;;;;1.52;0.55;;;12.10;91.20;;;;;;5041183;28;20402;-75
2023/05/18 03:44:36;;;;;;;2.95;0.95;;;11.90;91.60;;;;;;5032469;28;20036;-75
2023/05/18 03:47:02;;;;;;;1.48;0.65;;;12.10;90.90;;;;;;5034003;28;20108;-75
2023/05/18 03:49:30;;;;;;;1.75;0.57;;;12.00;91.30;;;;;;5035792;28;20037;-75
2023/05/18 03:51:56;;;;;;;1.73;0.60;;;12.00;91.30;;;;;;5029336;28;20102;-75
2023/05/18 03:54:23;;;;;;;1.42;0.47;;;12.20;90.80;;;;;;5028156;28;20026;-75
2023/05/18 03:56:50;;;;;;;1.50;0.70;;;11.80;91.70;;;;;;5034248;28;20036;-75
2023/05/18 03:59:15;;;;;;;1.17;0.40;;;12.00;91.30;;;;;;5036321;28;20034;-76
2023/05/18 04:01:43;;;;;;;2.40;0.32;;;12.10;91.00;;;;;;5030732;28;20029;-75
2023/05/18 04:04:16;;;;;;;1.02;0.45;;;12.10;91.20;;;;;;5034164;28;20033;-75
2023/05/18 04:06:45;;;;;;;3.50;0.60;;;12.00;91.60;;;;;;5035366;28;20089;-75
2023/05/18 04:09:13;;;;;;;1.40;0.60;;;11.70;92.10;;;;;;5034505;28;20086;-75
2023/05/18 04:11:40;;;;;;;1.98;0.70;;;11.80;91.90;;;;;;5039487;28;20068;-75
2023/05/18 04:14:07;;;;;;;1.38;0.60;;;11.70;92.10;;;;;;5039056;28;20033;-75
2023/05/18 04:16:33;;;;;;;1.20;0.32;;;11.40;92.60;;;;;;5029576;28;20034;-75
2023/05/18 04:18:59;;;;;;;7.63;1.23;;;11.30;93.00;;;;;;5034404;28;20059;-75
2023/05/18 04:21:25;;;;;;;2.30;0.40;;;11.30;93.00;;;;;;5034507;28;20029;-75
2023/05/18 04:23:50;;;;;;;14.90;1.10;;;11.00;93.60;;;;;;5034612;28;20033;-75
2023/05/18 04:26:19;;;;;;;4.07;0.60;;;11.10;93.60;;;;;;5029041;28;20033;-75
2023/05/18 04:28:46;;;;;;;3.65;0.73;;;10.90;94.00;;;;;;5032222;28;20048;-75
2023/05/18 04:31:13;;;;;;;4.32;0.82;;;10.80;94.30;;;;;;5037298;28;20041;-75
2023/05/18 04:33:40;;;;;;;1.63;0.45;;;11.00;94.10;;;;;;5027624;28;20078;-75
2023/05/18 04:36:06;;;;;;;4.45;0.50;;;10.90;94.20;;;;;;5036128;28;20029;-75
2023/05/18 04:38:35;;;;;;;0.63;0.40;;;10.70;95.10;;;;;;5034604;28;20048;-75
2023/05/18 04:41:04;;;;;;;1.10;0.47;;;10.70;94.90;;;;;;5038503;28;20078;-75
2023/05/18 04:43:29;;;;;;;1.10;0.50;;;10.90;94.80;;;;;;5034384;28;20034;-76
2023/05/18 04:45:56;;;;;;;2.67;0.60;;;10.60;95.20;;;;;;5028961;28;20029;-75
2023/05/18 04:48:24;;;;;;;1.17;0.52;;;10.70;95.20;;;;;;5031517;28;20033;-75
2023/05/18 04:50:53;;;;;;;1.87;0.73;;;10.30;96.20;;;;;;5026240;28;20029;-75
2023/05/18 04:53:20;;;;;;;1.63;0.50;;;10.70;95.40;;;;;;5036007;28;20336;-75
2023/05/18 04:55:48;;;;;;;2.03;0.47;;;10.80;95.00;;;;;;5039311;28;20037;-75
2023/05/18 04:58:15;;;;;;;1.65;0.60;;;10.80;95.60;;;;;;5038361;28;20094;-75
2023/05/18 05:00:41;;;;;;;4.10;0.70;;;10.60;95.50;;;;;;5036576;28;20029;-75
2023/05/18 05:03:08;;;;;;;0.47;0.32;;;10.70;96.10;;;;;;5027438;28;20068;-75
2023/05/18 05:05:34;;;;;;;1.30;0.47;;;10.70;96.20;;;;;;5031946;28;20060;-75
2023/05/18 05:08:00;;;;;;;1.08;0.50;;;10.80;95.50;;;;;;5040797;28;20117;-75
2023/05/18 05:10:29;;;;;;;2.65;0.90;;;10.80;95.60;;;;;;5041796;28;20467;-75
2023/05/18 05:12:55;;;;;;;2.08;0.45;;;10.90;95.50;;;;;;5034953;28;20496;-75
2023/05/18 05:15:20;;;;;;;1.30;0.40;;;10.90;95.30;;;;;;5026392;28;20035;-75
2023/05/18 05:17:47;;;;;;;1.23;0.60;;;11.10;94.90;;;;;;5028036;28;20091;-76
2023/05/18 05:20:13;;;;;;;1.80;0.52;;;11.10;95.10;;;;;;5032581;28;20052;-76
2023/05/18 05:22:38;;;;;;;1.83;0.57;;;11.00;95.50;;;;;;5032965;28;20637;-75
2023/05/18 05:25:04;;;;;;;2.60;0.65;;;11.10;95.00;;;;;;5036980;28;20048;-76
2023/05/18 05:27:30;;;;;;;1.40;0.47;;;10.90;95.80;;;;;;5031250;28;20029;-77
2023/05/18 05:29:56;;;;;;;0.98;0.60;;;10.90;95.90;;;;;;5027057;28;20036;-76
2023/05/18 05:32:21;;;;;;;2.05;0.60;;;11.10;95.80;;;;;;5027599;28;20048;-76
2023/05/18 05:34:49;;;;;;;0.60;0.32;;;11.10;95.70;;;;;;5031481;28;20037;-77
2023/05/18 05:37:15;;;;;;;1.88;0.63;;;11.30;95.30;;;;;;5032253;28;20037;-76
2023/05/18 05:39:40;;;;;;;1.00;0.90;;;11.40;95.30;;;;;;5034510;28;20099;-76
2023/05/18 05:42:07;;;;;;;1.23;0.45;;;11.60;95.40;;;;;;5029012;28;20061;-76
2023/05/18 05:44:33;;;;;;;0.77;0.47;;;11.50;95.80;;;;;;5037657;28;20163;-76
2023/05/18 05:46:58;;;;;;;1.80;0.90;;;11.70;94.70;;;;;;5033672;28;20515;-76
2023/05/18 05:49:24;;;;;;;3.30;0.82;;;11.80;94.60;;;;;;5026676;28;20030;-76
2023/05/18 05:51:50;;;;;;;1.10;0.60;;;11.90;94.80;;;;;;5033480;28;20041;-77
2023/05/18 05:54:16;;;;;;;5.28;1.00;;;11.90;95.10;;;;;;5036172;28;20761;-76
2023/05/18 05:56:42;;;;;;;4.70;1.13;;;12.00;95.00;;;;;;5031106;28;20036;-76
2023/05/18 05:59:08;;;;;;;1.85;1.02;;;11.90;96.30;;;;;;5036134;28;20116;-77
2023/05/18 06:01:33;;;;;;;2.33;0.50;;;12.00;94.60;;;;;;5033879;28;20395;-76
2023/05/18 06:04:00;;;;;;;1.38;0.60;;;12.20;94.70;;;;;;5028338;28;20022;-77
2023/05/18 06:06:26;;;;;;;0.70;0.30;;;12.30;93.80;;;;;;5026796;28;20033;-76
2023/05/18 06:08:51;;;;;;;1.08;0.60;;;12.30;95.80;;;;;;5035095;28;20129;-77
2023/05/18 06:11:17;;;;;;;2.30;0.70;;;12.40;95.90;;;;;;5031743;28;20120;-76
2023/05/18 06:13:43;;;;;;;1.40;0.70;;;12.50;95.30;;;;;;5039762;28;20421;-76
2023/05/18 06:16:08;;;;;;;1.45;0.80;;;12.60;95.30;;;;;;5029857;28;20025;-78
2023/05/18 06:18:34;;;;;;;4.35;0.90;;;12.60;95.10;;;;;;5028366;28;20111;-77
2023/05/18 06:21:00;;;;;;;0.98;0.60;;;12.70;95.60;;;;;;5033194;28;20577;-77
2023/05/18 06:23:25;;;;;;;1.52;0.52;;;12.80;95.90;;;;;;5037916;28;20078;-77
2023/05/18 06:25:52;;;;;;;1.88;0.60;;;12.80;97.70;;;;;;5033184;28;20125;-77
2023/05/18 06:28:17;;;;;;;6.80;0.77;;;12.80;97.90;;;;;;5032893;28;20032;-78
2023/05/18 06:30:44;;;;;;;2.53;0.80;;;12.70;96.40;;;;;;5037483;28;20497;-75
2023/05/18 06:33:09;;;;;;;2.28;0.57;;;12.70;93.20;;;;;;5037463;28;20033;-74
2023/05/18 06:35:35;;;;;;;1.85;0.70;;;12.90;92.70;;;;;;5037146;28;20087;-75
2023/05/18 06:38:01;;;;;;;1.48;0.55;;;13.10;93.20;;;;;;5035499;28;20033;-75
2023/05/18 06:40:26;;;;;;;2.22;0.80;;;13.20;94.80;;;;;;5042830;28;20532;-74
2023/05/18 06:42:52;;;;;;;1.80;0.60;;;13.30;94.70;;;;;;5042503;28;20033;-74
2023/05/18 06:45:18;;;;;;;2.17;0.90;;;13.40;94.10;;;;;;5040613;28;20515;-75
2023/05/18 06:47:45;;;;;;;2.40;0.85;;;13.60;94.10;;;;;;5039319;28;20033;-74
2023/05/18 06:50:10;;;;;;;4.25;1.35;;;13.70;94.10;;;;;;5038402;28;20025;-74
2023/05/18 06:52:36;;;;;;;2.38;0.40;;;13.90;91.90;;;;;;5036839;28;20052;-74
2023/05/18 06:55:03;;;;;;;4.03;0.73;;;14.20;91.40;;;;;;5030690;28;20025;-75
2023/05/18 06:57:28;;;;;;;1.92;0.65;;;14.60;91.50;;;;;;5037597;28;20112;-74
2023/05/18 06:59:54;;;;;;;1.33;0.60;;;14.90;90.10;;;;;;5039187;28;20035;-75
2023/05/18 07:02:20;;;;;;;2.13;1.00;;;15.00;90.10;;;;;;5033132;28;20037;-75
2023/05/18 07:04:47;;;;;;;0.68;0.43;;;15.30;90.60;;;;;;5033892;28;20749;-75
2023/05/18 07:07:13;;;;;;;3.85;0.88;;;15.60;90.60;;;;;;5039349;28;20024;-76
2023/05/18 07:09:44;;;;;;;1.58;0.50;;;15.80;90.90;;;;;;5034524;28;20028;-76
2023/05/18 07:12:11;;;;;;;2.60;0.68;;;16.00;89.40;;;;;;5033228;28;20407;-75
2023/05/18 07:14:36;;;;;;;1.60;0.73;;;16.20;88.40;;;;;;5040537;28;20025;-76
2023/05/18 07:17:03;;;;;;;1.40;0.80;;;16.30;90.00;;;;;;5037669;28;20495;-76
2023/05/18 07:19:29;;;;;;;1.50;0.80;;;16.90;87.30;;;;;;5033867;28;20052;-79
2023/05/18 07:21:55;;;;;;;1.33;0.60;;;18.10;86.20;;;;;;5031745;28;20041;-77
2023/05/18 07:24:21;;;;;;;2.60;0.57;;;19.50;82.80;;;;;;5034620;28;20057;-78
2023/05/18 07:26:47;;;;;;;3.33;1.05;;;21.00;80.10;;;;;;5030103;28;20548;-76
2023/05/18 07:29:13;;;;;;;0.75;0.50;;;22.50;78.60;;;;;;5032586;28;20025;-76
2023/05/18 07:31:39;;;;;;;2.40;0.80;;;22.30;75.80;;;;;;5037613;28;20148;-77
2023/05/18 07:34:06;;;;;;;0.95;0.43;;;22.40;74.40;;;;;;5034961;28;20402;-76
2023/05/18 07:36:31;;;;;;;1.75;0.50;;;23.00;75.30;;;;;;5035743;28;20033;-76
2023/05/18 07:38:57;;;;;;;1.77;0.47;;;22.60;73.40;;;;;;5027470;28;20049;-76
2023/05/18 07:41:23;;;;;;;0.98;0.57;;;22.50;74.90;;;;;;5028547;28;20120;-78
2023/05/18 07:43:50;;;;;;;1.30;0.47;;;23.60;72.80;;;;;;5023481;28;20031;-77
2023/05/18 07:46:16;;;;;;;0.82;0.43;;;23.40;73.10;;;;;;5037751;28;20021;-77
2023/05/18 07:48:42;;;;;;;2.92;0.82;;;22.70;74.40;;;;;;5032202;28;20079;-77
2023/05/18 07:51:07;;;;;;;1.02;0.50;;;22.30;75.70;;;;;;5035195;28;20038;-78
2023/05/18 07:53:33;;;;;;;3.53;1.05;;;23.00;74.40;;;;;;5037904;28;20029;-78
2023/05/18 07:56:00;;;;;;;1.48;0.65;;;22.90;73.70;;;;;;5029306;28;20444;-77
2023/05/18 07:58:25;;;;;;;2.72;0.80;;;22.00;75.00;;;;;;5030765;28;20648;-77
2023/05/18 08:00:51;;;;;;;3.53;0.98;;;20.70;77.10;;;;;;5028886;28;20033;-80
2023/05/18 08:03:17;;;;;;;2.20;0.60;;;21.30;74.50;;;;;;5038249;28;20084;-79
2023/05/18 08:05:43;;;;;;;2.78;0.88;;;21.70;76.10;;;;;;5031867;28;20029;-79
2023/05/18 08:08:10;;;;;;;2.17;1.02;;;21.30;77.00;;;;;;5035837;28;20029;-77
2023/05/18 08:10:36;;;;;;;1.48;0.60;;;21.70;76.00;;;;;;5036776;28;20025;-77
2023/05/18 08:13:02;;;;;;;2.85;0.80;;;20.80;76.90;;;;;;5034055;28;20059;-77
2023/05/18 08:15:28;;;;;;;0.85;0.50;;;20.00;77.50;;;;;;5025313;28;20036;-78
2023/05/18 08:17:53;;;;;;;4.45;0.80;;;19.50;78.10;;;;;;5029486;28;20606;-77
2023/05/18 08:20:19;;;;;;;1.38;0.50;;;18.40;79.50;;;;;;5025047;28;20036;-78
2023/05/18 08:22:45;;;;;;;1.20;0.47;;;18.50;79.40;;;;;;5034580;28;20111;-78
2023/05/18 08:25:11;;;;;;;1.60;0.60;;;18.70;79.20;;;;;;5036734;28;20037;-77
2023/05/18 08:27:36;;;;;;;0.95;0.50;;;18.80;79.10;;;;;;5035746;28;20040;-78
2023/05/18 08:30:02;;;;;;;1.15;0.52;;;18.50;78.70;;;;;;5031806;28;20039;-77
2023/05/18 08:32:28;;;;;;;2.05;1.15;;;18.60;80.50;;;;;;5026250;28;20052;-78
2023/05/18 08:34:53;;;;;;;1.45;0.43;;;18.50;82.80;;;;;;5035125;28;20040;-77
2023/05/18 08:37:20;;;;;;;1.80;0.47;;;18.80;82.40;;;;;;5031860;28;20037;-77
2023/05/18 08:39:46;;;;;;;5.15;1.00;;;18.70;80.80;;;;;;5030516;28;20049;-77
2023/05/18 08:42:38;;;;;;;1.92;0.82;;;18.50;80.80;;;;;;5030246;28;20032;-77
2023/05/18 08:45:12;;;;;;;1.27;0.60;;;18.70;82.90;;;;;;5039522;28;20085;-78
2023/05/18 08:47:38;;;;;;;1.83;0.68;;;19.10;81.50;;;;;;5033824;28;20048;-78
2023/05/18 08:50:05;;;;;;;3.20;0.77;;;19.00;81.60;;;;;;5038723;28;20351;-78
2023/05/18 08:52:35;;;;;;;1.60;0.73;;;18.90;82.40;;;;;;5031414;28;20823;-77
2023/05/18 08:55:05;;;;;;;1.02;0.50;;;18.70;82.40;;;;;;5035344;28;20629;-77
2023/05/18 08:57:33;;;;;;;2.55;0.88;;;18.70;82.00;;;;;;5034702;28;20040;-78
2023/05/18 09:00:00;;;;;;;3.03;0.68;;;18.90;79.70;;;;;;5030106;28;20099;-78
2023/05/18 09:02:27;;;;;;;1.05;0.55;;;19.00;79.50;;;;;;5027946;28;21052;-77
2023/05/18 09:04:54;;;;;;;1.13;0.60;;;18.60;79.90;;;;;;5031002;28;20060;-78
2023/05/18 09:07:21;;;;;;;2.50;0.55;;;19.00;79.30;;;;;;5032075;28;20075;-78
2023/05/18 09:09:48;;;;;;;2.45;0.57;;;19.50;79.40;;;;;;5035911;28;20082;-78
2023/05/18 09:12:17;;;;;;;1.67;0.70;;;19.90;81.20;;;;;;5027533;28;20044;-78
2023/05/18 09:14:43;;;;;;;3.30;1.05;;;20.00;80.70;;;;;;5032907;28;20028;-78
2023/05/18 09:17:09;;;;;;;2.38;0.60;;;19.60;79.60;;;;;;5039576;28;20032;-78
2023/05/18 09:19:36;;;;;;;1.92;0.70;;;19.50;82.10;;;;;;5030311;28;20034;-77
2023/05/18 09:22:02;;;;;;;1.17;0.60;;;19.90;82.80;;;;;;5030007;28;20052;-78
2023/05/18 09:24:27;;;;;;;5.05;0.93;;;19.60;80.20;;;;;;5033684;28;20025;-78
2023/05/18 09:26:53;;;;;;;5.82;1.75;;;19.60;78.50;;;;;;5023524;28;21039;-79
2023/05/18 09:29:21;;;;;;;1.25;0.70;;;19.50;80.60;;;;;;5029097;28;20025;-78
2023/05/18 09:31:47;;;;;;;3.22;0.68;;;19.50;81.10;;;;;;5029230;28;20055;-78
2023/05/18 09:34:14;;;;;;;1.98;0.65;;;19.80;79.60;;;;;;5028520;28;20033;-78
2023/05/18 09:36:41;;;;;;;2.38;0.85;;;19.70;79.50;;;;;;5035032;28;20025;-77
2023/05/18 09:39:10;;;;;;;0.65;0.40;;;19.60;79.30;;;;;;5031099;28;20033;-78
2023/05/18 09:41:39;;;;;;;2.90;0.73;;;19.20;79.60;;;;;;5029281;28;20493;-77
2023/05/18 09:44:08;;;;;;;1.27;0.50;;;19.70;79.80;;;;;;5038786;28;20040;-77
2023/05/18 09:46:40;;;;;;;1.38;0.75;;;19.80;80.10;;;;;;5035901;28;20083;-78
2023/05/18 09:49:07;;;;;;;2.72;0.70;;;20.00;79.60;;;;;;5038716;28;20037;-78
2023/05/18 09:51:37;;;;;;;0.90;0.47;;;20.40;79.40;;;;;;5026787;28;20577;-77
2023/05/18 09:54:06;;;;;;;1.25;0.52;;;20.10;77.70;;;;;;5034423;28;20029;-78
2023/05/18 09:56:35;;;;;;;1.42;0.60;;;19.90;77.00;;;;;;5027841;28;20036;-78
2023/05/18 09:59:15;;;;;;;1.17;0.65;;;20.70;79.40;;;;;;5033988;28;20037;-78
2023/05/18 10:01:56;;;;;;;0.80;0.30;;;21.20;78.30;;;;;;5030371;28;20033;-77
2023/05/18 10:04:22;;;;;;;1.67;0.70;;;21.50;77.60;;;;;;5042867;28;20534;-78
2023/05/18 10:06:49;;;;;;;1.85;0.50;;;21.60;77.70;;;;;;5037534;28;20071;-78
2023/05/18 10:09:15;;;;;;;1.17;0.55;;;21.40;78.90;;;;;;5036766;28;20028;-78
2023/05/18 10:11:42;;;;;;;1.98;0.60;;;21.40;78.50;;;;;;5039775;28;20028;-77
2023/05/18 10:14:10;;;;;;;1.45;0.47;;;21.40;80.80;;;;;;5028909;28;20087;-78
2023/05/18 10:16:36;;;;;;;1.33;0.60;;;21.00;75.90;;;;;;5035833;28;20480;-78
2023/05/18 10:19:04;;;;;;;1.20;0.50;;;21.00;75.90;;;;;;5032520;28;20028;-78
2023/05/18 10:21:33;;;;;;;2.00;0.57;;;21.10;77.70;;;;;;5035225;28;20041;-78
2023/05/18 10:24:02;;;;;;;2.92;0.60;;;21.40;77.90;;;;;;5042394;28;20043;-78
2023/05/18 10:26:30;;;;;;;1.33;0.57;;;21.70;80.40;;;;;;5042355;28;20091;-78
2023/05/18 10:28:57;;;;;;;1.02;0.38;;;21.60;78.90;;;;;;5041911;28;20399;-78
2023/05/18 10:31:24;;;;;;;1.20;0.47;;;21.60;79.80;;;;;;5035542;28;20472;-77
2023/05/18 10:33:52;;;;;;;1.98;0.85;;;21.70;80.10;;;;;;5044355;28;20082;-78
2023/05/18 10:36:18;;;;;;;0.93;0.40;;;22.20;78.10;;;;;;5044898;28;20032;-78
2023/05/18 10:38:45;;;;;;;0.98;0.40;;;22.10;77.20;;;;;;5038018;28;20636;-77
2023/05/18 10:41:12;;;;;;;0.40;0.20;;;22.10;76.60;;;;;;5033343;28;20092;-77
2023/05/18 10:43:40;;;;;;;1.20;0.47;;;22.20;77.60;;;;;;5036309;28;20029;-77
2023/05/18 10:46:07;;;;;;;0.95;0.40;;;22.20;79.70;;;;;;5032794;28;20067;-76
2023/05/18 10:48:39;;;;;;;1.17;0.43;;;21.80;77.20;;;;;;5036893;28;20056;-79
2023/05/18 10:51:06;;;;;;;2.13;0.50;;;22.10;80.00;;;;;;5046306;28;20717;-77
2023/05/18 10:53:32;;;;;;;2.28;0.40;;;22.00;76.60;;;;;;5039719;28;20025;-78
2023/05/18 10:55:58;;;;;;;2.45;0.50;;;21.70;77.70;;;;;;5038713;28;20017;-77
2023/05/18 10:58:26;;;;;;;0.57;0.30;;;22.00;80.20;;;;;;5043674;28;20078;-77
2023/05/18 11:00:58;;;;;;;1.30;0.50;;;22.20;78.70;;;;;;5044322;28;20083;-77
2023/05/18 11:03:25;;;;;;;1.92;0.57;;;22.80;76.80;;;;;;5034312;28;20025;-78
2023/05/18 11:06:13;;;;;;;1.23;0.63;;;22.60;77.20;;;;;;5034905;28;20039;-77
2023/05/18 11:08:45;;;;;;;0.95;0.50;;;22.40;75.20;;;;;;5036769;28;20071;-77
2023/05/18 11:11:11;;;;;;;0.80;0.43;;;22.40;80.60;;;;;;5038116;28;20056;-77
2023/05/18 11:13:42;;;;;;;0.50;0.32;;;22.90;77.90;;;;;;5040027;28;20048;-77
2023/05/18 11:16:08;;;;;;;0.45;0.30;;;23.10;79.10;;;;;;5037642;28;20110;-77
2023/05/18 11:18:38;;;;;;;1.75;0.40;;;23.50;78.70;;;;;;5035431;28;20841;-78
2023/05/18 11:21:17;;;;;;;1.75;0.50;;;23.00;78.30;;;;;;5035802;28;20032;-78
2023/05/18 11:24:12;;;;;;;1.42;0.77;;;22.60;81.30;;;;;;5030898;28;20037;-77
2023/05/18 11:26:39;;;;;;;1.10;0.50;;;22.60;80.70;;;;;;5039987;28;20047;-78
2023/05/18 11:29:17;;;;;;;0.85;0.47;;;23.10;80.20;;;;;;5037913;28;20055;-77
2023/05/18 11:31:47;;;;;;;1.42;0.70;;;23.10;82.50;;;;;;5037515;28;20083;-78
2023/05/18 11:34:37;;;;;;;0.57;0.45;;;23.60;81.60;;;;;;5032091;28;20480;-77
2023/05/18 11:37:04;;;;;;;1.38;0.50;;;23.50;81.50;;;;;;5037978;28;20064;-78
2023/05/18 11:39:31;;;;;;;1.15;0.40;;;22.50;80.50;;;;;;5040456;28;20045;-78
2023/05/18 11:42:10;;;;;;;1.27;0.60;;;22.30;83.80;;;;;;5038135;28;20033;-76
2023/05/18 11:44:38;;;;;;;0.68;0.50;;;22.30;83.30;;;;;;5037382;28;20055;-78
2023/05/18 11:47:08;;;;;;;1.38;0.50;;;22.80;81.50;;;;;;5042776;28;20029;-78
2023/05/18 11:49:47;;;;;;;2.20;0.88;;;22.80;82.30;;;;;;5039330;28;20444;-78
2023/05/18 11:52:21;;;;;;;1.27;0.50;;;22.90;82.70;;;;;;5040521;28;20029;-77
2023/05/18 11:54:52;;;;;;;2.08;0.50;;;22.70;81.70;;;;;;5044819;28;20090;-78
2023/05/18 11:57:28;;;;;;;3.50;0.88;;;22.60;82.30;;;;;;5040276;28;20038;-78
2023/05/18 11:59:58;;;;;;;2.60;0.63;;;22.60;82.00;;;;;;5033574;28;20043;-77
2023/05/18 12:02:30;;;;;;;1.17;0.50;;;22.80;83.90;;;;;;5035938;28;20033;-77
2023/05/18 12:05:01;;;;;;;3.92;0.60;;;22.80;83.60;;;;;;5040450;28;20029;-78
2023/05/18 12:07:28;;;;;;;4.10;0.68;;;22.90;83.90;;;;;;5038372;28;20036;-77
2023/05/18 12:09:59;;;;;;;1.50;0.60;;;23.20;82.30;;;;;;5033977;28;20029;-77
2023/05/18 12:12:26;;;;;;;0.75;0.40;;;23.50;81.80;;;;;;5030691;28;20067;-77
2023/05/18 12:14:58;;;;;;;3.40;0.52;;;23.30;83.00;;;;;;5040387;28;20379;-78
2023/05/18 12:17:46;;;;;;;1.38;0.50;;;22.90;81.30;;;;;;5041307;28;20040;-78
2023/05/18 12:20:18;;;;;;;1.38;0.60;;;22.40;83.70;;;;;;5037499;28;20057;-78
2023/05/18 12:22:51;;;;;;;0.90;0.50;;;22.40;82.70;;;;;;5037006;28;20038;-78
2023/05/18 12:25:22;;;;;;;2.25;0.75;;;22.00;83.30;;;;;;5034974;28;20025;-77
2023/05/18 12:27:48;;;;;;;1.02;0.50;;;22.10;85.10;;;;;;5037467;28;20029;-77
2023/05/18 12:30:14;;;;;;;1.42;0.63;;;22.40;84.90;;;;;;5040272;28;20044;-78
2023/05/18 12:32:54;;;;;;;2.03;0.57;;;22.60;84.00;;;;;;5032997;28;20056;-77
2023/05/18 12:35:24;;;;;;;1.77;0.60;;;22.90;83.90;;;;;;5029757;28;20537;-77
2023/05/18 12:37:50;;;;;;;1.65;0.57;;;23.10;82.30;;;;;;5037768;28;20087;-77
2023/05/18 12:40:18;;;;;;;1.10;0.38;;;23.30;83.00;;;;;;4989415;28;1419939;-78
2023/05/18 12:43:13;;;;;;;1.40;0.63;;;23.10;82.20;;;;;;5043404;28;20148;-78
2023/05/18 12:45:39;;;;;;;1.65;0.68;;;23.20;83.30;;;;;;5035872;28;20079;-77
2023/05/18 12:48:06;;;;;;;3.00;0.50;;;23.40;82.80;;;;;;5038952;28;20024;-78
2023/05/18 12:50:33;;;;;;;2.03;0.70;;;23.60;81.80;;;;;;5028819;28;20068;-78
2023/05/18 12:53:00;;;;;;;1.63;0.50;;;24.10;82.50;;;;;;5038579;28;20091;-78
2023/05/18 12:55:28;;;;;;;1.08;0.55;;;24.30;81.30;;;;;;5031341;28;20029;-78
2023/05/18 12:58:15;;;;;;;1.17;0.50;;;23.80;82.50;;;;;;5037511;28;20530;-77
2023/05/18 13:00:44;;;;;;;1.17;0.40;;;23.70;83.00;;;;;;5037389;28;20026;-78
2023/05/18 13:03:13;;;;;;;1.27;0.30;;;23.20;82.80;;;;;;5040415;28;20029;-78
2023/05/18 13:05:44;;;;;;;2.13;0.63;;;23.40;83.20;;;;;;5040322;28;20510;-77
2023/05/18 13:08:16;;;;;;;2.65;0.52;;;23.10;82.30;;;;;;5035974;28;20033;-78
2023/05/18 13:10:43;;;;;;;2.33;0.50;;;23.50;85.20;;;;;;5032092;28;21271;-77